Almere Haven Meer informatie Almere Haven


Onweer radar Meer informatie blitzortung!


Regen radar Meer informatie rain snow radar


Apparatuur in gebruik:

Davis VP2

Meteohub

ALIX 1D

Web-Oke


Het weer levert geen direct gevaar op.    Er zijn geen waarschuwingen afgegeven.

METAR rapporten vliegvelden

   
EHAM - Amsterdam/Schiph, Netherlands
Afstand tot: WZW 42 km
Gewijzigd: 20-10-2020 04:55
Helder  
Helder  
   Wind: ZO 16.7 km/h
Wind: ZO 16.7 km/h
Temperatuur: 8°C
Voelt als: 5°C
Dauwpunt: 5°C
Vochtigheid: 82%
Barometer: 1009 hPa
Zicht: meer dan 10 km
Bewolking: Helder
EHAM 200255Z 13009KT CAVOK 08/05 Q1009 NOSIG
EHDL - Deelen Rnlafb, Netherlands
Afstand tot: ZO 49 km
Gewijzigd: 20-10-2020 04:55
Bewolking  
Bewolking  
   Wind: ZO 18.5 km/h
Wind: ZO 18.5 km/h
Temperatuur: 8°C
Voelt als: 5°C
Dauwpunt: 5°C
Vochtigheid: 82%
Barometer: 1010 hPa
Bewolking: Bewolking
Zicht: meer dan 10 km
Bewolking: Bewolking 4876.8 m
EHDL 200255Z AUTO 13010KT 070V210 9999 OVC160 08/05 Q1010 BLU
EHKD - De Kooy (navy), Netherlands
Afstand tot: NW 72 km
Gewijzigd: 20-10-2020 04:55
Bewolking  
Bewolking  
   Wind: ZO 16.7 km/h
Wind: ZO 16.7 km/h
Temperatuur: 8°C
Voelt als: 5°C
Dauwpunt: 5°C
Vochtigheid: 82%
Barometer: 1008 hPa
Bewolking: Bewolking
Zicht: meer dan 10 km
Bewolking: Bewolking 4267.2 m
EHKD 200255Z AUTO 13009KT 110V170 9999 OVC140 08/05 Q1008 BLU
EHRD - Rotterdam Airpor, Netherlands
Afstand tot: ZW 80 km
Gewijzigd: 20-10-2020 04:55
Gedeeltelijk bewolkt  
Gedeeltelijk bewolkt  
   Wind: ZO 16.7 km/h
Wind: ZO 16.7 km/h
Temperatuur: 9°C
Voelt als: 7°C
Dauwpunt: 5°C
Vochtigheid: 76%
Barometer: 1008 hPa
Bewolking: Gedeeltelijk bewolkt
Zicht: meer dan 10 km
Bewolking: Gedeeltelijk bewolkt
EHRD 200255Z AUTO 13009KT 100V170 9999 NSC 09/05 Q1008 NOSIG
EHVK - Volkel Rnlafb, Netherlands
Afstand tot: ZZO 87 km
Gewijzigd: 20-10-2020 04:55
Bewolking  
Bewolking  
   Wind: OZO 13 km/h
Wind: OZO 13 km/h
Temperatuur: 7°C
Voelt als: 4°C
Dauwpunt: 4°C
Vochtigheid: 81%
Barometer: 1010 hPa
Bewolking: Bewolking
Zicht: meer dan 10 km
Bewolking: Bewolking 4876.8 m
EHVK 200255Z AUTO 12007KT 100V160 9999 OVC160 07/04 Q1010 BLU
EHLW - Leeuwarden Rnlaf, Netherlands
Afstand tot: NNO 95 km
Gewijzigd: 20-10-2020 04:55
Bewolking  
Bewolking  
   Wind: ZZO 16.7 km/h
Wind: ZZO 16.7 km/h
Temperatuur: 8°C
Voelt als: 5°C
Dauwpunt: 5°C
Vochtigheid: 82%
Barometer: 1010 hPa
Bewolking: Bewolking
Zicht: meer dan 10 km
Bewolking: Grotendeels bewolkt 5181.6 m,
Bewolking 6705.6 m
EHLW 200255Z AUTO 15009KT 110V180 9999 BKN170 OVC220 08/05 Q1010 BLU

Script ontwikkeld door  Saratoga-weather.org Aangepast voor de template door  Weerstation Leuven

U vindt ons ook hier:

Het Weer Aktueel

UK Metoffice

European Weather Network

Weather Underground

Benelux Weer Netwerk

AWEKAS